createdAt,value
2022-08-03T00:02:20.111Z,97.20
2022-08-03T00:04:49.113Z,96.80
2022-08-03T00:07:18.720Z,97.40
2022-08-03T00:09:47.150Z,97.10
2022-08-03T00:12:15.650Z,97.30
2022-08-03T00:14:44.232Z,97.00
2022-08-03T00:17:12.633Z,97.10
2022-08-03T00:19:40.958Z,97.00
2022-08-03T00:22:09.176Z,97.40
2022-08-03T00:24:38.780Z,97.40
2022-08-03T00:27:06.958Z,97.20
2022-08-03T00:29:59.327Z,97.40
2022-08-03T00:32:24.693Z,97.40
2022-08-03T00:34:58.839Z,97.40
2022-08-03T00:37:40.926Z,97.40
2022-08-03T00:40:13.976Z,97.40
2022-08-03T00:42:50.598Z,97.40
2022-08-03T00:45:19.548Z,97.40
2022-08-03T00:47:48.225Z,97.40
2022-08-03T00:50:17.531Z,97.40
2022-08-03T00:52:46.324Z,97.40
2022-08-03T00:55:16.394Z,97.40
2022-08-03T00:57:45.348Z,97.40
2022-08-03T01:00:17.106Z,97.40
2022-08-03T01:02:45.615Z,97.40
2022-08-03T01:05:14.939Z,97.40
2022-08-03T01:07:59.256Z,97.40
2022-08-03T01:10:46.747Z,97.40
2022-08-03T01:14:02.023Z,97.40
2022-08-03T01:16:25.897Z,97.40
2022-08-03T01:19:25.639Z,97.40
2022-08-03T01:22:05.570Z,97.40
2022-08-03T01:24:45.800Z,97.40
2022-08-03T01:27:21.840Z,97.40
2022-08-03T01:30:06.492Z,97.40
2022-08-03T01:33:02.227Z,97.40
2022-08-03T01:35:39.177Z,97.40
2022-08-03T01:38:13.242Z,97.40
2022-08-03T01:40:44.456Z,97.40
2022-08-03T01:44:26.174Z,97.40
2022-08-03T01:46:09.132Z,97.40
2022-08-03T01:48:39.456Z,97.40
2022-08-03T01:51:10.138Z,97.40
2022-08-03T01:53:39.951Z,97.40
2022-08-03T01:56:08.594Z,97.40
2022-08-03T01:58:38.318Z,97.40
2022-08-03T02:01:10.147Z,97.40
2022-08-03T02:03:59.841Z,97.40
2022-08-03T02:07:02.675Z,97.40
2022-08-03T02:09:23.624Z,97.40
2022-08-03T02:11:53.501Z,97.40
2022-08-03T02:14:23.407Z,97.40
2022-08-03T02:16:54.148Z,97.40
2022-08-03T02:19:23.884Z,97.40
2022-08-03T02:21:56.829Z,97.40
2022-08-03T02:24:30.377Z,97.40
2022-08-03T02:27:00.158Z,97.40
2022-08-03T02:29:40.354Z,97.40
2022-08-03T02:32:17.368Z,97.40
2022-08-03T02:34:52.986Z,97.40
2022-08-03T02:37:22.814Z,97.40
2022-08-03T02:39:54.235Z,97.40
2022-08-03T02:42:25.717Z,97.40
2022-08-03T02:44:56.985Z,97.40
2022-08-03T02:47:53.863Z,97.40
2022-08-03T02:50:20.056Z,97.40
2022-08-03T02:52:50.291Z,97.40
2022-08-03T02:55:19.681Z,97.40
2022-08-03T02:57:49.451Z,97.40
2022-08-03T03:00:27.528Z,97.40
2022-08-03T03:02:59.586Z,97.40
2022-08-03T03:05:55.111Z,97.40
2022-08-03T03:08:26.881Z,97.40
2022-08-03T03:11:00.670Z,97.40
2022-08-03T03:13:30.324Z,97.40
2022-08-03T03:16:02.418Z,97.40
2022-08-03T03:18:33.144Z,97.40
2022-08-03T03:21:03.666Z,97.40
2022-08-03T03:23:33.984Z,97.40
2022-08-03T03:26:03.179Z,97.40
2022-08-03T03:28:32.923Z,97.40
2022-08-03T03:31:02.187Z,97.40
2022-08-03T03:33:31.813Z,97.40
2022-08-03T03:36:00.603Z,97.40
2022-08-03T03:38:29.139Z,97.40
2022-08-03T03:40:57.656Z,97.40
2022-08-03T03:43:26.215Z,97.40
2022-08-03T03:45:55.886Z,97.40
2022-08-03T03:48:25.506Z,97.40
2022-08-03T03:50:57.169Z,97.40
2022-08-03T03:53:25.953Z,97.40
2022-08-03T03:55:59.581Z,97.40
2022-08-03T03:58:33.089Z,97.40
2022-08-03T04:01:01.905Z,97.40
2022-08-03T04:03:30.311Z,97.40
2022-08-03T04:06:18.100Z,97.40
2022-08-03T04:09:15.741Z,97.40
2022-08-03T04:11:51.620Z,97.40
2022-08-03T04:14:24.543Z,97.40
2022-08-03T04:16:59.319Z,97.40
2022-08-03T04:19:32.739Z,97.40
2022-08-03T04:22:07.557Z,97.40
2022-08-03T04:24:40.596Z,97.40
2022-08-03T04:27:12.754Z,97.40
2022-08-03T04:29:48.457Z,97.40
2022-08-03T04:32:18.364Z,97.40
2022-08-03T04:34:47.212Z,97.40
2022-08-03T04:37:27.231Z,97.40
2022-08-03T04:39:58.319Z,97.40
2022-08-03T04:42:28.842Z,97.40
2022-08-03T04:45:01.355Z,97.40
2022-08-03T04:47:32.119Z,97.40
2022-08-03T04:50:02.570Z,97.40
2022-08-03T04:52:32.509Z,97.40
2022-08-03T04:55:00.712Z,97.40
2022-08-03T04:57:28.992Z,97.40
2022-08-03T05:00:02.663Z,97.40
2022-08-03T05:02:32.444Z,97.40
2022-08-03T05:05:01.959Z,97.40
2022-08-03T05:07:36.436Z,97.40
2022-08-03T05:10:09.131Z,97.40
2022-08-03T05:12:45.128Z,97.40
2022-08-03T05:15:13.756Z,97.40
2022-08-03T05:17:42.683Z,97.40
2022-08-03T05:20:12.799Z,97.40
2022-08-03T05:22:42.411Z,97.40
2022-08-03T05:25:17.755Z,97.40
2022-08-03T05:27:48.919Z,97.40
2022-08-03T05:30:31.132Z,97.40
2022-08-03T05:33:04.251Z,97.40
2022-08-03T05:36:01.669Z,97.40
2022-08-03T05:38:28.760Z,97.40
2022-08-03T05:41:22.261Z,97.40
2022-08-03T05:43:46.053Z,97.40
2022-08-03T05:46:14.572Z,97.40
2022-08-03T05:48:43.543Z,97.40
2022-08-03T05:51:12.295Z,97.40
2022-08-03T05:53:43.141Z,97.40
2022-08-03T05:56:14.041Z,97.30
2022-08-03T05:58:44.681Z,96.70
2022-08-03T06:01:13.295Z,96.40
2022-08-03T06:03:41.588Z,96.20
2022-08-03T06:06:09.908Z,96.50
2022-08-03T06:08:38.419Z,96.80
2022-08-03T06:11:08.420Z,96.30
2022-08-03T06:13:37.292Z,96.30
2022-08-03T06:16:06.414Z,95.80
2022-08-03T06:18:35.230Z,95.30
2022-08-03T06:21:09.543Z,94.40
2022-08-03T06:23:54.335Z,93.60
2022-08-03T06:26:29.946Z,92.80
2022-08-03T06:28:58.663Z,91.60
2022-08-03T06:31:33.008Z,91.80
2022-08-03T06:34:33.671Z,91.50
2022-08-03T06:37:01.337Z,91.50
2022-08-03T06:39:30.621Z,91.60
2022-08-03T06:42:00.992Z,91.20
2022-08-03T06:44:30.160Z,91.40
2022-08-03T06:46:58.794Z,90.90
2022-08-03T06:49:30.417Z,90.20
2022-08-03T06:52:05.268Z,90.50
2022-08-03T06:54:36.741Z,89.40
2022-08-03T06:57:08.365Z,90.30
2022-08-03T07:00:10.995Z,87.30
2022-08-03T07:02:25.066Z,87.50
2022-08-03T07:04:57.151Z,87.50
2022-08-03T07:07:25.571Z,86.00
2022-08-03T07:09:57.550Z,85.10
2022-08-03T07:12:29.069Z,84.50
2022-08-03T07:15:02.322Z,84.10
2022-08-03T07:17:33.507Z,83.20
2022-08-03T07:20:04.033Z,81.90
2022-08-03T07:22:32.456Z,80.80
2022-08-03T07:25:01.031Z,80.00
2022-08-03T07:27:30.768Z,80.00
2022-08-03T07:30:00.398Z,77.10
2022-08-03T07:32:31.241Z,76.10
2022-08-03T07:35:01.183Z,77.10
2022-08-03T07:37:31.116Z,75.60
2022-08-03T07:39:59.660Z,76.70
2022-08-03T07:42:28.054Z,74.50
2022-08-03T07:44:58.399Z,73.90
2022-08-03T07:47:35.032Z,73.50
2022-08-03T07:50:06.468Z,71.80
2022-08-03T07:52:49.357Z,70.50
2022-08-03T07:55:18.441Z,69.80
2022-08-03T07:57:46.887Z,68.30
2022-08-03T08:00:19.314Z,68.70
2022-08-03T08:02:47.582Z,68.70
2022-08-03T08:05:15.734Z,64.20
2022-08-03T08:07:44.005Z,64.80
2022-08-03T08:10:19.265Z,64.00
2022-08-03T08:12:48.177Z,63.80
2022-08-03T08:15:17.929Z,60.70
2022-08-03T08:17:49.333Z,57.40
2022-08-03T08:20:28.273Z,58.00
2022-08-03T08:23:02.019Z,55.80
2022-08-03T08:25:33.495Z,56.30
2022-08-03T08:28:31.930Z,53.90
2022-08-03T08:30:54.823Z,54.50
2022-08-03T08:33:24.060Z,53.70
2022-08-03T08:35:55.566Z,52.60
2022-08-03T08:38:24.340Z,51.40
2022-08-03T08:40:52.889Z,52.00
2022-08-03T08:43:21.151Z,50.70
2022-08-03T08:45:51.574Z,49.30
2022-08-03T08:48:26.959Z,46.50
2022-08-03T08:50:57.937Z,47.80
2022-08-03T08:53:30.217Z,45.30
2022-08-03T08:56:01.697Z,45.50
2022-08-03T08:58:39.029Z,43.20
2022-08-03T09:01:07.693Z,43.50
2022-08-03T09:03:37.724Z,44.30
2022-08-03T09:06:06.750Z,42.40
2022-08-03T09:08:35.644Z,43.80
2022-08-03T09:11:03.872Z,43.00
2022-08-03T09:13:32.247Z,42.30
2022-08-03T09:16:15.352Z,41.20
2022-08-03T09:18:46.794Z,40.50
2022-08-03T09:21:34.879Z,39.80
2022-08-03T09:24:08.414Z,38.30
2022-08-03T09:26:41.449Z,36.50
2022-08-03T09:29:15.563Z,33.60
2022-08-03T09:31:47.296Z,33.90
2022-08-03T09:34:19.482Z,31.30
2022-08-03T09:36:50.429Z,30.90
2022-08-03T09:39:28.638Z,32.10
2022-08-03T09:42:10.384Z,29.20
2022-08-03T09:44:42.113Z,29.20
2022-08-03T09:47:11.672Z,29.10
2022-08-03T09:49:43.261Z,28.20
2022-08-03T09:52:37.654Z,28.80
2022-08-03T09:56:02.374Z,28.60
2022-08-03T09:58:09.077Z,27.80
2022-08-03T10:00:55.681Z,26.70
2022-08-03T10:03:24.402Z,26.00
2022-08-03T10:05:59.345Z,26.10
2022-08-03T10:08:28.479Z,25.30
2022-08-03T10:10:58.528Z,26.50
2022-08-03T10:13:26.900Z,25.70
2022-08-03T10:16:23.955Z,26.70
2022-08-03T10:18:44.316Z,25.90
2022-08-03T10:21:18.574Z,24.90
2022-08-03T10:23:47.869Z,26.10
2022-08-03T10:26:20.364Z,25.20
2022-08-03T10:28:51.824Z,24.80
2022-08-03T10:31:23.684Z,24.60
2022-08-03T10:33:54.664Z,24.90
2022-08-03T10:36:26.040Z,24.50
2022-08-03T10:38:56.559Z,23.50
2022-08-03T10:41:28.528Z,24.00
2022-08-03T10:44:04.831Z,23.20
2022-08-03T10:46:36.009Z,22.70
2022-08-03T10:49:04.841Z,22.60
2022-08-03T10:51:34.828Z,22.70
2022-08-03T10:54:03.249Z,22.20
2022-08-03T10:57:13.663Z,21.90
2022-08-03T11:00:03.012Z,21.60
2022-08-03T11:03:10.204Z,21.10
2022-08-03T11:05:42.031Z,21.10
2022-08-03T11:08:30.494Z,21.40
2022-08-03T11:11:02.361Z,20.90
2022-08-03T11:13:33.879Z,22.10
2022-08-03T11:16:21.876Z,21.10
2022-08-03T11:18:59.798Z,21.50
2022-08-03T11:21:59.972Z,22.30
2022-08-03T11:25:01.043Z,20.50
2022-08-03T11:27:33.968Z,21.40
2022-08-03T11:30:07.617Z,20.70
2022-08-03T11:33:00.105Z,19.50
2022-08-03T11:35:31.280Z,20.70
2022-08-03T11:38:11.241Z,20.10
2022-08-03T11:40:46.262Z,20.60
2022-08-03T11:43:45.793Z,20.50
2022-08-03T11:46:29.627Z,20.30
2022-08-03T11:49:10.246Z,19.90
2022-08-03T11:51:40.212Z,19.90
2022-08-03T11:54:08.773Z,19.80
2022-08-03T11:56:48.179Z,19.80
2022-08-03T11:59:21.881Z,19.50
2022-08-03T12:01:51.182Z,20.00
2022-08-03T12:04:19.573Z,19.20
2022-08-03T12:07:00.667Z,19.60
2022-08-03T12:09:29.020Z,19.70
2022-08-03T12:11:59.734Z,19.30
2022-08-03T12:14:49.683Z,18.50
2022-08-03T12:17:19.251Z,19.30
2022-08-03T12:19:47.907Z,19.30
2022-08-03T12:22:17.115Z,20.10
2022-08-03T12:24:47.405Z,20.60
2022-08-03T12:27:26.459Z,19.70
2022-08-03T12:29:57.276Z,20.40
2022-08-03T12:32:28.571Z,20.60
2022-08-03T12:35:00.816Z,21.40
2022-08-03T12:37:30.440Z,21.20
2022-08-03T12:40:09.416Z,21.70
2022-08-03T12:42:41.177Z,21.30
2022-08-03T12:45:23.872Z,20.80
2022-08-03T12:47:54.857Z,21.60
2022-08-03T12:50:28.902Z,22.20
2022-08-03T12:52:58.017Z,21.50
2022-08-03T12:55:57.128Z,21.00
2022-08-03T12:58:34.148Z,21.40
2022-08-03T13:01:05.213Z,21.10
2022-08-03T13:03:43.612Z,21.10
2022-08-03T13:06:15.216Z,20.80
2022-08-03T13:08:44.366Z,21.80
2022-08-03T13:11:53.568Z,21.30
2022-08-03T13:14:19.438Z,21.30
2022-08-03T13:16:49.301Z,21.00
2022-08-03T13:19:17.707Z,20.30
2022-08-03T13:22:02.236Z,21.60
2022-08-03T13:24:34.902Z,21.70
2022-08-03T13:28:01.199Z,20.80
2022-08-03T13:29:54.883Z,20.90
2022-08-03T13:32:23.981Z,20.40
2022-08-03T13:34:52.326Z,20.20
2022-08-03T13:37:20.827Z,20.10
2022-08-03T13:39:58.662Z,20.50
2022-08-03T13:42:30.404Z,20.40
2022-08-03T13:45:01.401Z,20.50
2022-08-03T13:47:29.977Z,20.70
2022-08-03T13:50:01.226Z,20.70
2022-08-03T13:52:33.055Z,20.90
2022-08-03T13:55:01.650Z,21.50
2022-08-03T13:58:02.187Z,21.70
2022-08-03T14:00:26.265Z,21.20
2022-08-03T14:03:05.073Z,22.80
2022-08-03T14:05:38.219Z,22.90
2022-08-03T14:08:08.012Z,23.20
2022-08-03T14:10:38.405Z,23.30
2022-08-03T14:13:07.493Z,23.70
2022-08-03T14:15:38.525Z,23.40
2022-08-03T14:18:15.858Z,23.90
2022-08-03T14:20:57.979Z,23.50
2022-08-03T14:23:27.931Z,23.90
2022-08-03T14:25:56.152Z,23.20
2022-08-03T14:28:25.737Z,23.50
2022-08-03T14:30:56.967Z,23.60
2022-08-03T14:33:25.777Z,23.90
2022-08-03T14:35:54.349Z,23.80
2022-08-03T14:38:23.516Z,24.30
2022-08-03T14:40:53.088Z,24.60
2022-08-03T14:43:21.533Z,24.60
2022-08-03T14:45:52.135Z,24.10
2022-08-03T14:50:31.789Z,25.30
2022-08-03T14:51:11.520Z,24.60
2022-08-03T14:53:39.774Z,25.00
2022-08-03T14:56:10.687Z,25.90
2022-08-03T14:58:39.597Z,25.40
2022-08-03T15:02:05.446Z,25.60
2022-08-03T15:03:58.145Z,25.90
2022-08-03T15:06:26.578Z,26.20
2022-08-03T15:09:21.758Z,25.80
2022-08-03T15:11:43.923Z,25.60
2022-08-03T15:14:13.474Z,26.30
2022-08-03T15:16:43.300Z,26.10
2022-08-03T15:20:04.061Z,26.20
2022-08-03T15:22:01.753Z,26.70
2022-08-03T15:24:30.539Z,26.90
2022-08-03T15:26:58.899Z,26.90
2022-08-03T15:30:05.651Z,27.30
2022-08-03T15:32:15.658Z,27.10
2022-08-03T15:34:50.591Z,27.30
2022-08-03T15:37:20.729Z,27.70
2022-08-03T15:39:59.487Z,28.00
2022-08-03T15:42:30.778Z,27.50
2022-08-03T15:44:59.152Z,28.40
2022-08-03T15:47:28.060Z,28.30
2022-08-03T15:49:57.815Z,28.40
2022-08-03T15:52:26.165Z,28.20
2022-08-03T15:54:54.402Z,28.30
2022-08-03T15:57:23.042Z,28.30
2022-08-03T15:59:51.847Z,28.60
2022-08-03T16:02:20.202Z,28.50
2022-08-03T16:04:48.707Z,27.60
2022-08-03T16:07:38.358Z,27.80
2022-08-03T16:10:07.982Z,28.60
2022-08-03T16:12:36.278Z,28.80
2022-08-03T16:15:05.266Z,29.10
2022-08-03T16:17:33.761Z,28.70
2022-08-03T16:20:04.170Z,29.20
2022-08-03T16:22:46.155Z,29.10
2022-08-03T16:25:17.633Z,29.20
2022-08-03T16:28:00.341Z,29.10
2022-08-03T16:30:35.896Z,29.60
2022-08-03T16:33:04.745Z,29.40
2022-08-03T16:35:33.189Z,30.10
2022-08-03T16:38:07.798Z,29.50
2022-08-03T16:40:37.887Z,29.70
2022-08-03T16:43:18.750Z,29.40
2022-08-03T16:45:48.197Z,29.60
2022-08-03T16:48:16.925Z,29.40
2022-08-03T16:50:46.123Z,29.60
2022-08-03T16:53:33.169Z,29.60
2022-08-03T16:56:10.570Z,29.50
2022-08-03T16:58:41.511Z,29.50
2022-08-03T17:01:22.265Z,30.20
2022-08-03T17:04:01.890Z,30.10
2022-08-03T17:06:36.061Z,30.20
2022-08-03T17:09:09.945Z,29.70
2022-08-03T17:11:46.490Z,29.80
2022-08-03T17:14:17.044Z,29.70
2022-08-03T17:16:52.429Z,29.50
2022-08-03T17:19:26.267Z,29.40
2022-08-03T17:22:04.275Z,30.10
2022-08-03T17:24:41.381Z,29.80
2022-08-03T17:28:48.618Z,29.70
2022-08-03T17:30:09.486Z,29.60
2022-08-03T17:32:42.570Z,29.60
2022-08-03T17:35:12.072Z,29.20
2022-08-03T17:37:57.618Z,29.70
2022-08-03T17:40:28.728Z,29.80
2022-08-03T17:43:00.624Z,29.80
2022-08-03T17:45:51.887Z,30.10
2022-08-03T17:48:18.630Z,29.80
2022-08-03T17:50:54.946Z,30.20
2022-08-03T17:53:30.542Z,30.40
2022-08-03T17:56:42.430Z,30.20
2022-08-03T17:59:51.358Z,29.90
2022-08-03T18:02:47.785Z,30.60
2022-08-03T18:05:21.785Z,31.00
2022-08-03T18:07:59.382Z,31.20
2022-08-03T18:10:49.584Z,31.30
2022-08-03T18:13:25.774Z,31.90
2022-08-03T18:16:02.879Z,32.50
2022-08-03T18:18:38.663Z,32.80
2022-08-03T18:21:09.331Z,34.10
2022-08-03T18:23:46.038Z,34.40
2022-08-03T18:26:19.108Z,34.20
2022-08-03T18:28:50.611Z,35.40
2022-08-03T18:31:59.802Z,35.40
2022-08-03T18:34:17.627Z,36.80
2022-08-03T18:36:59.951Z,37.40
2022-08-03T18:39:29.541Z,39.50
2022-08-03T18:41:57.901Z,39.50
2022-08-03T18:44:53.275Z,41.20
2022-08-03T18:47:52.371Z,41.50
2022-08-03T18:50:30.530Z,43.50
2022-08-03T18:53:15.702Z,43.80
2022-08-03T18:56:01.673Z,43.50
2022-08-03T18:58:42.316Z,43.20
2022-08-03T19:01:59.782Z,43.50
2022-08-03T19:04:16.919Z,43.60
2022-08-03T19:06:49.035Z,44.00
2022-08-03T19:09:28.834Z,44.90
2022-08-03T19:12:26.140Z,45.80
2022-08-03T19:14:54.743Z,46.50
2022-08-03T19:17:29.253Z,47.60
2022-08-03T19:19:59.386Z,49.10
2022-08-03T19:22:30.391Z,48.70
2022-08-03T19:25:02.254Z,49.00
2022-08-03T19:27:32.184Z,49.00
2022-08-03T19:30:09.911Z,49.60
2022-08-03T19:32:51.540Z,49.70
2022-08-03T19:35:51.185Z,49.90
2022-08-03T19:38:10.256Z,50.50
2022-08-03T19:40:45.725Z,50.30
2022-08-03T19:43:23.226Z,51.00
2022-08-03T19:46:05.920Z,51.60
2022-08-03T19:48:39.716Z,52.00
2022-08-03T19:51:12.095Z,52.20
2022-08-03T19:53:44.905Z,53.10
2022-08-03T19:56:15.878Z,53.40
2022-08-03T19:58:44.676Z,53.20
2022-08-03T20:01:21.319Z,53.20
2022-08-03T20:03:53.018Z,54.00
2022-08-03T20:06:24.385Z,54.00
2022-08-03T20:08:55.209Z,54.20
2022-08-03T20:11:28.715Z,55.20
2022-08-03T20:14:00.015Z,56.00
2022-08-03T20:16:28.561Z,55.70
2022-08-03T20:18:58.276Z,55.70
2022-08-03T20:21:31.025Z,55.80
2022-08-03T20:24:23.315Z,57.50
2022-08-03T20:26:57.851Z,58.00
2022-08-03T20:30:04.891Z,58.10
2022-08-03T20:32:24.742Z,58.70
2022-08-03T20:34:54.623Z,59.90
2022-08-03T20:37:23.876Z,60.90
2022-08-03T20:39:54.264Z,62.00
2022-08-03T20:42:22.761Z,62.20
2022-08-03T20:47:50.338Z,62.30
2022-08-03T20:50:22.079Z,62.90
2022-08-03T20:52:51.021Z,62.90
2022-08-03T20:55:47.918Z,64.00
2022-08-03T20:58:11.545Z,63.50
2022-08-03T21:00:44.155Z,64.80
2022-08-03T21:03:12.593Z,66.80
2022-08-03T21:05:53.484Z,67.20
2022-08-03T21:08:27.223Z,68.90
2022-08-03T21:11:00.564Z,67.70
2022-08-03T21:13:13.699Z,62.00
2022-08-03T21:13:46.713Z,69.10
2022-08-03T21:16:16.099Z,68.70
2022-08-03T21:18:53.916Z,69.10
2022-08-03T21:21:31.388Z,70.00
2022-08-03T21:24:03.622Z,70.20
2022-08-03T21:26:35.581Z,70.50
2022-08-03T21:29:04.004Z,70.70
2022-08-03T21:31:32.555Z,71.10
2022-08-03T21:34:04.383Z,71.50
2022-08-03T21:36:37.571Z,71.80
2022-08-03T21:39:08.850Z,73.20
2022-08-03T21:41:39.046Z,74.30
2022-08-03T21:44:08.228Z,75.00
2022-08-03T21:46:40.659Z,74.80
2022-08-03T21:50:06.170Z,76.10
2022-08-03T21:52:06.660Z,76.70
2022-08-03T21:54:39.473Z,76.70
2022-08-03T21:57:17.148Z,78.00
2022-08-03T21:59:54.023Z,78.00
2022-08-03T22:02:28.155Z,78.70
2022-08-03T22:04:59.971Z,78.70
2022-08-03T22:07:31.227Z,78.60
2022-08-03T22:10:01.626Z,79.50
2022-08-03T22:12:32.283Z,81.70
2022-08-03T22:15:03.430Z,80.40
2022-08-03T22:17:55.417Z,80.00
2022-08-03T22:20:22.863Z,80.80
2022-08-03T22:22:57.190Z,80.00
2022-08-03T22:25:29.892Z,81.00
2022-08-03T22:28:01.208Z,81.50
2022-08-03T22:30:31.454Z,81.70
2022-08-03T22:33:00.781Z,82.80
2022-08-03T22:35:29.642Z,82.80
2022-08-03T22:38:00.142Z,84.30
2022-08-03T22:40:29.209Z,83.20
2022-08-03T22:42:58.714Z,83.00
2022-08-03T22:46:07.274Z,83.40
2022-08-03T22:48:17.712Z,83.20
2022-08-03T22:50:46.885Z,83.60
2022-08-03T22:53:21.113Z,83.80
2022-08-03T22:55:50.914Z,83.80
2022-08-03T22:58:21.687Z,84.50
2022-08-03T23:00:55.877Z,85.10
2022-08-03T23:03:59.079Z,84.90
2022-08-03T23:06:17.743Z,84.90
2022-08-03T23:08:48.628Z,85.50
2022-08-03T23:11:19.817Z,86.40
2022-08-03T23:13:53.970Z,86.90
2022-08-03T23:16:28.624Z,86.60
2022-08-03T23:19:16.725Z,87.50
2022-08-03T23:21:59.887Z,87.10
2022-08-03T23:24:36.798Z,88.80
2022-08-03T23:27:06.798Z,89.20
2022-08-03T23:29:37.643Z,88.40
2022-08-03T23:32:07.919Z,88.20
2022-08-03T23:34:53.790Z,88.40
2022-08-03T23:37:22.190Z,89.00
2022-08-03T23:39:52.716Z,89.00
2022-08-03T23:42:22.049Z,89.90
2022-08-03T23:44:55.906Z,89.70
2022-08-03T23:47:24.897Z,90.10
2022-08-03T23:50:13.470Z,90.20
2022-08-03T23:52:59.203Z,90.30
2022-08-03T23:55:57.554Z,90.50
2022-08-03T23:58:42.697Z,90.70
